Athena, Oregon
Current Conditions -  °F | °C
As of 3:53 PM on Wednesday 26 Nov 2014 (Local Time) from KPDT Reporting Station
Clear Clear  
Wind Chill: 55°   Ceiling: Unl
Heat Index: 55°   Visibility: 10mi
Dew Point: 46°   Wind: 6mph
Humidity: 72%   Direction: 50°NE
Pressure: 30.08"   Gusts: NA
Location:  45.81°N, 118.49°W
Report Text: KPDT 262353Z 05005KT 10SM CLR 13/08 A3008 RMK AO2 SLP180 T01280078 10167 20128 56015
Loading
Personal Weather Stations






























Interactive Weather Map New forecast layout! Learn more

10-Day Weather Forecast

Advertisements
Track Severe Weather on mobile